createdAt,value
2019-01-29T00:02:09.894Z,3.00
2019-01-29T00:04:39.301Z,3.00
2019-01-29T00:07:08.742Z,3.00
2019-01-29T00:09:38.072Z,3.00
2019-01-29T00:12:07.492Z,3.00
2019-01-29T00:14:36.940Z,2.90
2019-01-29T00:17:06.304Z,3.00
2019-01-29T00:19:35.742Z,2.90
2019-01-29T00:22:05.606Z,3.00
2019-01-29T00:24:34.997Z,3.00
2019-01-29T00:27:04.405Z,3.00
2019-01-29T00:29:33.820Z,3.00
2019-01-29T00:32:03.275Z,3.00
2019-01-29T00:34:32.685Z,3.00
2019-01-29T00:37:02.115Z,3.10
2019-01-29T00:39:31.542Z,3.10
2019-01-29T00:42:00.877Z,3.10
2019-01-29T00:44:30.241Z,3.10
2019-01-29T00:46:59.662Z,3.10
2019-01-29T00:49:29.098Z,3.10
2019-01-29T00:51:58.617Z,3.10
2019-01-29T00:54:28.009Z,3.10
2019-01-29T00:56:57.429Z,3.10
2019-01-29T00:59:26.833Z,3.10
2019-01-29T01:01:56.290Z,3.10
2019-01-29T01:04:25.712Z,3.10
2019-01-29T01:06:55.493Z,3.10
2019-01-29T01:09:24.946Z,3.20
2019-01-29T01:11:54.345Z,3.20
2019-01-29T01:14:23.802Z,3.20
2019-01-29T01:16:53.239Z,3.20
2019-01-29T01:19:22.735Z,3.10
2019-01-29T01:21:52.177Z,3.20
2019-01-29T01:24:21.575Z,3.10
2019-01-29T01:26:50.934Z,3.10
2019-01-29T01:29:20.339Z,3.10
2019-01-29T01:31:49.810Z,3.10
2019-01-29T01:34:19.362Z,3.10
2019-01-29T01:36:48.809Z,3.10
2019-01-29T01:39:18.144Z,3.10
2019-01-29T01:41:47.597Z,3.10
2019-01-29T01:44:17.041Z,3.10
2019-01-29T01:46:46.423Z,3.00
2019-01-29T01:49:15.821Z,3.10
2019-01-29T01:51:45.247Z,3.10
2019-01-29T01:54:14.641Z,3.00
2019-01-29T01:56:44.010Z,3.00
2019-01-29T01:59:13.401Z,3.00
2019-01-29T02:01:42.862Z,3.00
2019-01-29T02:04:12.247Z,3.00
2019-01-29T02:06:41.670Z,3.00
2019-01-29T02:09:11.163Z,3.00
2019-01-29T02:11:40.911Z,3.00
2019-01-29T02:14:10.329Z,3.00
2019-01-29T02:16:39.721Z,3.00
2019-01-29T02:19:09.073Z,3.00
2019-01-29T02:21:38.481Z,3.00
2019-01-29T02:24:07.853Z,2.90
2019-01-29T02:26:37.286Z,3.00
2019-01-29T02:29:06.669Z,3.00
2019-01-29T02:31:36.073Z,3.00
2019-01-29T02:34:05.509Z,3.00
2019-01-29T02:36:34.818Z,3.00
2019-01-29T02:39:06.618Z,3.00
2019-01-29T02:41:36.023Z,3.00
2019-01-29T02:44:05.834Z,3.00
2019-01-29T02:46:35.154Z,3.00
2019-01-29T02:49:04.686Z,3.00
2019-01-29T02:51:34.121Z,3.00
2019-01-29T02:54:03.530Z,3.00
2019-01-29T02:56:32.961Z,3.00
2019-01-29T02:59:02.277Z,3.00
2019-01-29T03:01:31.664Z,3.00
2019-01-29T03:04:01.085Z,3.00
2019-01-29T03:06:30.573Z,3.00
2019-01-29T03:08:59.917Z,3.00
2019-01-29T03:11:29.330Z,3.00
2019-01-29T03:13:58.711Z,3.10
2019-01-29T03:16:28.128Z,3.00
2019-01-29T03:18:57.562Z,3.10
2019-01-29T03:21:28.071Z,3.10
2019-01-29T03:23:57.474Z,3.10
2019-01-29T03:26:26.874Z,3.10
2019-01-29T03:28:56.333Z,3.10
2019-01-29T03:31:25.735Z,3.00
2019-01-29T03:33:55.118Z,3.10
2019-01-29T03:36:24.495Z,3.10
2019-01-29T03:38:53.955Z,3.00
2019-01-29T03:41:23.425Z,3.00
2019-01-29T03:43:52.811Z,3.00
2019-01-29T03:46:22.238Z,3.00
2019-01-29T03:48:51.721Z,3.00
2019-01-29T03:51:21.092Z,3.00
2019-01-29T03:53:50.717Z,2.90
2019-01-29T03:56:20.141Z,2.90
2019-01-29T03:58:49.543Z,3.00
2019-01-29T04:01:19.388Z,3.00
2019-01-29T04:03:48.724Z,2.90
2019-01-29T04:06:18.077Z,2.90
2019-01-29T04:08:47.505Z,2.90
2019-01-29T04:11:16.850Z,2.80
2019-01-29T04:13:46.282Z,2.80
2019-01-29T04:16:15.687Z,2.80
2019-01-29T04:18:45.113Z,2.60
2019-01-29T04:21:14.451Z,2.70
2019-01-29T04:23:47.646Z,2.70
2019-01-29T04:26:15.052Z,2.70
2019-01-29T04:28:44.452Z,2.80
2019-01-29T04:31:13.970Z,2.80
2019-01-29T04:33:43.414Z,2.80
2019-01-29T04:36:12.945Z,2.80
2019-01-29T04:38:42.270Z,2.80
2019-01-29T04:41:11.589Z,2.80
2019-01-29T04:43:40.949Z,2.80
2019-01-29T04:46:10.365Z,2.80
2019-01-29T04:48:39.697Z,2.80
2019-01-29T04:51:09.049Z,2.90
2019-01-29T04:53:38.466Z,2.90
2019-01-29T04:56:07.861Z,2.90
2019-01-29T04:58:37.243Z,2.80
2019-01-29T05:01:06.693Z,2.80
2019-01-29T05:03:36.126Z,2.80
2019-01-29T05:06:05.576Z,2.80
2019-01-29T05:08:35.004Z,2.90
2019-01-29T05:11:04.393Z,2.90
2019-01-29T05:13:33.705Z,2.90
2019-01-29T05:16:03.066Z,2.90
2019-01-29T05:18:32.454Z,2.90
2019-01-29T05:21:01.969Z,2.80
2019-01-29T05:23:31.388Z,2.80
2019-01-29T05:26:00.804Z,2.90
2019-01-29T05:28:30.220Z,2.90
2019-01-29T05:30:59.645Z,2.90
2019-01-29T05:33:29.072Z,2.80
2019-01-29T05:35:58.494Z,2.80
2019-01-29T05:38:27.890Z,2.80
2019-01-29T05:40:57.244Z,2.80
2019-01-29T05:43:26.586Z,2.70
2019-01-29T05:45:55.998Z,2.60
2019-01-29T05:48:25.397Z,2.50
2019-01-29T05:50:54.846Z,2.60
2019-01-29T05:53:24.477Z,2.50
2019-01-29T05:55:53.796Z,2.60
2019-01-29T05:58:23.251Z,2.70
2019-01-29T06:00:52.592Z,2.60
2019-01-29T06:03:22.146Z,2.60
2019-01-29T06:05:51.554Z,2.50
2019-01-29T06:08:20.931Z,2.50
2019-01-29T06:10:50.341Z,2.50
2019-01-29T06:13:19.717Z,2.60
2019-01-29T06:15:49.054Z,2.60
2019-01-29T06:18:18.531Z,2.50
2019-01-29T06:20:47.929Z,2.60
2019-01-29T06:23:17.405Z,2.60
2019-01-29T06:25:46.857Z,2.50
2019-01-29T06:28:16.301Z,2.50
2019-01-29T06:30:46.687Z,2.40
2019-01-29T06:33:16.164Z,2.40
2019-01-29T06:35:45.583Z,2.40
2019-01-29T06:38:14.993Z,2.40
2019-01-29T06:40:44.337Z,2.50
2019-01-29T06:43:13.745Z,2.50
2019-01-29T06:45:43.144Z,2.50
2019-01-29T06:48:12.469Z,2.40
2019-01-29T06:51:02.060Z,2.40
2019-01-29T06:53:43.431Z,2.50
2019-01-29T06:56:24.889Z,2.50
2019-01-29T07:01:50.373Z,2.40
2019-01-29T07:07:18.320Z,2.50
2019-01-29T07:15:43.558Z,2.50
2019-01-29T07:24:10.125Z,2.30
2019-01-29T07:29:35.613Z,2.30
2019-01-29T07:32:17.017Z,2.30
2019-01-29T07:34:58.260Z,2.40
2019-01-29T07:37:40.430Z,2.40
2019-01-29T07:45:53.908Z,2.40
2019-01-29T07:51:24.026Z,2.50
2019-01-29T07:56:53.835Z,2.50
2019-01-29T08:02:50.630Z,2.50
2019-01-29T08:05:32.167Z,2.60
2019-01-29T08:08:13.497Z,2.70
2019-01-29T08:10:54.884Z,2.70
2019-01-29T08:16:22.951Z,2.80
2019-01-29T08:19:04.166Z,2.80
2019-01-29T08:21:46.591Z,2.80
2019-01-29T08:24:28.167Z,2.90
2019-01-29T08:38:46.015Z,3.00
2019-01-29T08:46:59.344Z,3.00
2019-01-29T08:49:40.172Z,3.00
2019-01-29T09:04:01.323Z,3.40
2019-01-29T09:23:53.259Z,3.70
2019-01-29T09:26:37.772Z,3.80
2019-01-29T09:32:02.851Z,3.80
2019-01-29T09:40:25.213Z,3.90
2019-01-29T09:43:06.203Z,3.80
2019-01-29T09:45:47.483Z,3.80
2019-01-29T09:48:31.235Z,3.90
2019-01-29T09:54:00.334Z,3.90
2019-01-29T10:02:21.677Z,3.90
2019-01-29T10:07:46.584Z,3.90
2019-01-29T10:10:27.787Z,3.90
2019-01-29T10:15:54.321Z,3.90
2019-01-29T10:18:35.249Z,3.90
2019-01-29T10:24:01.310Z,3.90
2019-01-29T10:29:26.898Z,3.90
2019-01-29T10:32:07.208Z,4.00
2019-01-29T10:34:48.876Z,4.10
2019-01-29T10:40:41.920Z,4.00
2019-01-29T10:43:22.117Z,4.00
2019-01-29T10:46:04.838Z,4.00
2019-01-29T10:51:34.212Z,4.00
2019-01-29T10:54:15.700Z,4.00
2019-01-29T10:56:57.072Z,4.00
2019-01-29T10:59:38.435Z,4.10
2019-01-29T11:02:19.736Z,4.10
2019-01-29T11:07:44.645Z,4.10
2019-01-29T11:10:26.078Z,4.10
2019-01-29T11:13:07.634Z,4.10
2019-01-29T11:18:32.372Z,4.20
2019-01-29T11:23:59.538Z,4.20
2019-01-29T11:29:24.675Z,4.30
2019-01-29T11:32:06.326Z,4.40
2019-01-29T11:34:47.914Z,4.40
2019-01-29T11:40:12.759Z,4.40
2019-01-29T11:45:32.199Z,4.50
2019-01-29T11:48:13.399Z,4.40
2019-01-29T11:50:55.034Z,4.40
2019-01-29T11:53:36.531Z,4.30
2019-01-29T11:56:17.139Z,4.40
2019-01-29T12:01:41.678Z,4.30
2019-01-29T12:04:24.272Z,4.30
2019-01-29T12:07:05.707Z,4.30
2019-01-29T12:09:47.368Z,4.30
2019-01-29T12:12:28.692Z,4.30
2019-01-29T12:15:10.023Z,4.40
2019-01-29T12:17:50.886Z,4.40
2019-01-29T12:23:21.407Z,4.60
2019-01-29T12:26:02.616Z,4.60
2019-01-29T12:28:45.042Z,4.60
2019-01-29T12:34:15.702Z,4.70
2019-01-29T12:39:39.572Z,4.80
2019-01-29T12:42:20.891Z,4.80
2019-01-29T12:45:03.308Z,4.90
2019-01-29T12:47:44.288Z,4.90
2019-01-29T12:53:15.646Z,4.90
2019-01-29T12:55:56.952Z,4.90
2019-01-29T13:01:17.302Z,4.90
2019-01-29T13:06:48.863Z,4.90
2019-01-29T13:09:30.263Z,4.90
2019-01-29T13:12:13.093Z,4.80
2019-01-29T13:17:43.340Z,4.80
2019-01-29T13:23:14.846Z,4.70
2019-01-29T13:31:26.298Z,4.70
2019-01-29T13:42:57.102Z,4.70
2019-01-29T14:15:19.100Z,4.90
2019-01-29T14:33:06.491Z,4.90
2019-01-29T14:35:55.184Z,4.90
2019-01-29T14:38:44.477Z,4.90
2019-01-29T14:41:30.003Z,4.80
2019-01-29T14:47:06.773Z,4.90
2019-01-29T15:07:14.360Z,4.80
2019-01-29T15:09:58.499Z,4.80
2019-01-29T15:18:14.528Z,4.80
2019-01-29T15:23:50.340Z,4.70
2019-01-29T15:26:34.348Z,4.60
2019-01-29T15:29:18.926Z,4.60
2019-01-29T15:35:17.244Z,4.50
2019-01-29T15:40:33.584Z,4.50
2019-01-29T15:46:08.925Z,4.40
2019-01-29T15:54:42.002Z,4.20
2019-01-29T16:00:20.296Z,4.00
2019-01-29T16:03:04.526Z,4.00
2019-01-29T16:11:23.565Z,3.80
2019-01-29T16:14:04.794Z,3.70
2019-01-29T16:19:41.822Z,3.60
2019-01-29T16:25:19.159Z,3.50
2019-01-29T16:30:43.809Z,3.50
2019-01-29T16:33:25.182Z,3.50
2019-01-29T16:36:06.524Z,3.40
2019-01-29T16:38:48.202Z,3.40
2019-01-29T16:41:29.472Z,3.30
2019-01-29T16:44:10.920Z,3.10
2019-01-29T16:46:52.376Z,3.00
2019-01-29T16:52:17.225Z,3.00
2019-01-29T16:54:58.630Z,2.90
2019-01-29T16:57:41.080Z,2.80
2019-01-29T17:00:28.200Z,2.50
2019-01-29T17:05:55.464Z,2.30
2019-01-29T17:08:36.270Z,2.30
2019-01-29T17:14:06.408Z,2.50
2019-01-29T17:16:50.504Z,2.50
2019-01-29T17:19:34.008Z,2.60
2019-01-29T17:25:06.764Z,2.50
2019-01-29T17:30:34.346Z,2.30
2019-01-29T17:33:17.503Z,2.20
2019-01-29T17:35:59.189Z,2.20
2019-01-29T17:38:44.605Z,2.20
2019-01-29T17:41:24.726Z,2.20
2019-01-29T17:44:12.530Z,2.20
2019-01-29T17:49:48.559Z,2.10
2019-01-29T17:55:12.212Z,2.10
2019-01-29T18:18:36.962Z,1.70
2019-01-29T18:30:40.000Z,1.70
2019-01-29T18:33:10.188Z,1.70
2019-01-29T18:41:24.452Z,1.80
2019-01-29T18:44:16.871Z,1.70
2019-01-29T18:47:08.964Z,1.70
2019-01-29T18:49:40.796Z,1.60
2019-01-29T18:52:23.355Z,1.50
2019-01-29T18:54:54.734Z,1.40
2019-01-29T18:57:49.443Z,1.40
2019-01-29T19:00:41.880Z,1.40
2019-01-29T19:03:18.049Z,1.40
2019-01-29T19:09:41.696Z,1.40
2019-01-29T19:12:49.563Z,1.50
2019-01-29T19:15:21.725Z,1.40
2019-01-29T19:18:01.484Z,1.50
2019-01-29T19:20:31.921Z,1.50
2019-01-29T19:23:07.206Z,1.50
2019-01-29T19:25:37.401Z,1.50
2019-01-29T19:28:21.613Z,1.50
2019-01-29T19:33:28.859Z,1.50
2019-01-29T19:36:08.615Z,1.40
2019-01-29T19:39:09.238Z,1.50
2019-01-29T19:41:39.488Z,1.60
2019-01-29T19:44:16.928Z,1.60
2019-01-29T19:46:47.102Z,1.60
2019-01-29T19:49:19.908Z,1.60
2019-01-29T19:51:52.915Z,1.60
2019-01-29T19:54:24.698Z,1.60
2019-01-29T19:56:59.528Z,1.60
2019-01-29T19:59:37.437Z,1.50
2019-01-29T20:02:08.098Z,1.50
2019-01-29T20:07:38.886Z,1.50
2019-01-29T20:10:12.281Z,1.40
2019-01-29T20:12:44.268Z,1.30
2019-01-29T20:15:38.352Z,1.30
2019-01-29T20:18:13.252Z,1.20
2019-01-29T20:22:33.636Z,1.20
2019-01-29T20:24:27.072Z,1.10
2019-01-29T20:30:30.996Z,1.00
2019-01-29T20:33:11.025Z,1.00
2019-01-29T20:35:57.273Z,1.00
2019-01-29T20:38:35.200Z,0.90
2019-01-29T20:41:08.366Z,0.90
2019-01-29T20:43:46.096Z,0.90
2019-01-29T20:46:21.777Z,0.90
2019-01-29T20:48:59.429Z,0.90
2019-01-29T20:51:47.040Z,0.90
2019-01-29T20:54:26.136Z,0.80
2019-01-29T20:57:03.413Z,0.90
2019-01-29T21:00:44.771Z,0.80
2019-01-29T21:03:34.805Z,0.80
2019-01-29T21:07:04.864Z,0.80
2019-01-29T21:10:21.517Z,0.80
2019-01-29T21:19:43.665Z,0.80
2019-01-29T21:22:28.898Z,0.90
2019-01-29T21:25:08.561Z,0.90
2019-01-29T21:27:56.435Z,0.80
2019-01-29T21:34:15.029Z,0.90
2019-01-29T21:37:00.096Z,0.90
2019-01-29T21:39:39.551Z,0.90
2019-01-29T21:42:20.485Z,0.90
2019-01-29T21:44:49.936Z,0.90
2019-01-29T21:47:19.416Z,0.90
2019-01-29T21:49:48.844Z,0.90
2019-01-29T21:52:18.463Z,1.00
2019-01-29T21:54:48.141Z,0.90
2019-01-29T21:57:18.914Z,0.90
2019-01-29T21:59:49.459Z,1.00
2019-01-29T22:02:18.946Z,1.00
2019-01-29T22:04:48.457Z,0.90
2019-01-29T22:07:18.050Z,0.90
2019-01-29T22:09:47.651Z,0.90
2019-01-29T22:12:17.165Z,0.90
2019-01-29T22:14:46.697Z,0.90
2019-01-29T22:17:16.127Z,0.90
2019-01-29T22:19:45.641Z,1.00
2019-01-29T22:22:15.094Z,1.00
2019-01-29T22:24:44.568Z,1.00
2019-01-29T22:27:13.970Z,1.00
2019-01-29T22:29:43.393Z,1.00
2019-01-29T22:32:12.834Z,1.00
2019-01-29T22:34:42.264Z,1.00
2019-01-29T22:37:11.717Z,1.00
2019-01-29T22:39:42.693Z,1.00
2019-01-29T22:42:12.228Z,1.00
2019-01-29T22:44:41.707Z,1.00
2019-01-29T22:47:11.190Z,1.00
2019-01-29T22:49:40.671Z,1.00
2019-01-29T22:52:10.084Z,1.00
2019-01-29T22:54:39.469Z,1.10
2019-01-29T22:57:08.953Z,1.10
2019-01-29T22:59:38.388Z,1.20
2019-01-29T23:02:07.970Z,1.20
2019-01-29T23:04:41.298Z,1.20
2019-01-29T23:07:22.839Z,1.20
2019-01-29T23:09:52.284Z,1.20
2019-01-29T23:12:21.637Z,1.20
2019-01-29T23:14:51.063Z,1.30
2019-01-29T23:17:20.511Z,1.30
2019-01-29T23:19:49.947Z,1.30
2019-01-29T23:22:19.413Z,1.20
2019-01-29T23:24:48.745Z,1.30
2019-01-29T23:27:18.164Z,1.20
2019-01-29T23:29:47.637Z,1.30
2019-01-29T23:32:17.086Z,1.30
2019-01-29T23:34:46.557Z,1.30
2019-01-29T23:37:15.904Z,1.30
2019-01-29T23:39:45.339Z,1.30
2019-01-29T23:42:14.768Z,1.30
2019-01-29T23:44:45.002Z,1.30
2019-01-29T23:47:14.333Z,1.30
2019-01-29T23:49:43.770Z,1.30
2019-01-29T23:52:13.171Z,1.20
2019-01-29T23:54:42.569Z,1.30
2019-01-29T23:57:11.991Z,1.20
2019-01-29T23:59:41.424Z,1.20
